createdAt,value
2022-09-28T00:04:15.119Z,7.6
2022-09-28T00:14:17.015Z,7.5
2022-09-28T00:14:23.938Z,7.5
2022-09-28T00:24:27.630Z,7.4
2022-09-28T00:34:27.825Z,7.4
2022-09-28T00:44:30.131Z,7.4
2022-09-28T00:54:32.210Z,7.2
2022-09-28T01:04:34.683Z,7.1
2022-09-28T01:14:36.774Z,7
2022-09-28T01:24:38.746Z,6.9
2022-09-28T01:34:41.143Z,7
2022-09-28T01:44:43.198Z,6.9
2022-09-28T01:54:45.596Z,6.9
2022-09-28T02:04:48.278Z,6.8
2022-09-28T02:14:50.280Z,6.8
2022-09-28T02:24:52.910Z,6.8
2022-09-28T02:34:54.717Z,6.9
2022-09-28T02:44:56.543Z,6.9
2022-09-28T02:54:59.029Z,6.9
2022-09-28T03:05:00.738Z,6.9
2022-09-28T03:15:03.313Z,6.9
2022-09-28T03:25:05.239Z,6.9
2022-09-28T03:35:07.702Z,6.9
2022-09-28T03:45:09.757Z,6.8
2022-09-28T03:55:12.268Z,6.9
2022-09-28T04:05:13.970Z,6.9
2022-09-28T04:15:15.675Z,6.9
2022-09-28T04:25:17.657Z,6.9
2022-09-28T04:35:19.637Z,6.9
2022-09-28T04:45:21.634Z,7
2022-09-28T04:55:23.927Z,7
2022-09-28T05:05:26.255Z,7
2022-09-28T05:15:28.556Z,7.1
2022-09-28T05:25:31.125Z,7.1
2022-09-28T05:35:33.079Z,7.1
2022-09-28T05:45:35.400Z,7.1
2022-09-28T06:05:39.459Z,7
2022-09-28T06:15:41.177Z,7.1
2022-09-28T06:55:49.510Z,7.4
2022-09-28T07:05:51.472Z,7.4
2022-09-28T07:15:53.375Z,7.4
2022-09-28T07:25:56.201Z,7.6
2022-09-28T07:35:58.535Z,7.7
2022-09-28T07:46:00.905Z,7.8
2022-09-28T07:56:03.147Z,7.8
2022-09-28T08:06:12.646Z,7.7
2022-09-28T08:16:07.874Z,8
2022-09-28T08:36:12.645Z,8.1
2022-09-28T09:46:27.326Z,9.2
2022-09-28T10:06:32.141Z,9.1
2022-09-28T10:26:36.028Z,9.7
2022-09-28T10:36:37.879Z,9.6
2022-09-28T10:46:40.059Z,9.9
2022-09-28T10:56:42.299Z,10.1
2022-09-28T11:06:44.760Z,10.2
2022-09-28T11:16:46.748Z,10.3
2022-09-28T11:26:49.324Z,10.8
2022-09-28T11:36:51.200Z,10.9
2022-09-28T11:56:54.977Z,11
2022-09-28T12:06:57.567Z,11
2022-09-28T12:17:06.169Z,11.2
2022-09-28T12:37:03.570Z,11.5
2022-09-28T13:07:09.390Z,11.4
2022-09-28T13:17:11.715Z,11.1
2022-09-28T13:57:20.431Z,11.8
2022-09-28T14:07:22.508Z,11.9
2022-09-28T14:17:24.678Z,11.7
2022-09-28T14:37:29.472Z,11.5
2022-09-28T14:47:31.922Z,11.7
2022-09-28T14:57:33.583Z,11.8
2022-09-28T15:17:39.933Z,12.6
2022-09-28T15:27:46.057Z,12.6
2022-09-28T15:37:41.496Z,11.9
2022-09-28T15:57:45.256Z,11.2
2022-09-28T16:07:48.235Z,11
2022-09-28T16:17:49.498Z,11.1
2022-09-28T16:37:52.960Z,11.1
2022-09-28T16:47:55.458Z,10.9
2022-09-28T16:57:57.893Z,10.7
2022-09-28T17:18:01.998Z,10.5
2022-09-28T17:38:05.974Z,10.4
2022-09-28T17:58:10.695Z,10.1
2022-09-28T18:18:14.864Z,9.9
2022-09-28T18:28:17.255Z,9.8
2022-09-28T18:38:19.803Z,9.7
2022-09-28T18:48:21.587Z,9.4
2022-09-28T18:58:23.835Z,9.1
2022-09-28T19:08:27.620Z,9
2022-09-28T19:18:28.155Z,8.7
2022-09-28T19:28:37.759Z,8.6
2022-09-28T19:48:34.867Z,8.3
2022-09-28T20:08:41.358Z,8.1
2022-09-28T20:18:41.452Z,8
2022-09-28T20:28:43.108Z,7.9
2022-09-28T20:48:48.263Z,7.9
2022-09-28T20:58:50.790Z,7.9
2022-09-28T21:08:53.417Z,8
2022-09-28T21:18:55.309Z,8.2
2022-09-28T21:28:57.074Z,8.3
2022-09-28T21:49:01.497Z,8.3
2022-09-28T21:59:03.806Z,8.2
2022-09-28T22:09:06.336Z,8.1
2022-09-28T22:19:08.589Z,7.8
2022-09-28T22:29:10.728Z,7.5
2022-09-28T22:49:14.861Z,7
2022-09-28T22:59:17.392Z,6.8
2022-09-28T23:09:19.966Z,6.7
2022-09-28T23:19:21.794Z,6.4
2022-09-28T23:29:24.008Z,6.2
2022-09-28T23:39:26.213Z,6.3
2022-09-28T23:49:28.140Z,6
2022-09-28T23:59:30.722Z,5.9
